createdAt,value
2022-08-07T00:00:39.770Z,0.90
2022-08-07T00:03:12.628Z,1.20
2022-08-07T00:05:41.176Z,1.00
2022-08-07T00:08:09.271Z,0.70
2022-08-07T00:10:47.994Z,0.80
2022-08-07T00:13:25.775Z,0.80
2022-08-07T00:15:55.493Z,0.67
2022-08-07T00:18:26.177Z,0.80
2022-08-07T00:20:56.763Z,0.63
2022-08-07T00:23:24.367Z,0.63
2022-08-07T00:26:01.558Z,0.63
2022-08-07T00:28:34.857Z,0.90
2022-08-07T00:31:16.676Z,1.00
2022-08-07T00:33:49.502Z,0.70
2022-08-07T00:36:18.337Z,0.70
2022-08-07T00:38:46.213Z,0.53
2022-08-07T00:41:14.644Z,0.40
2022-08-07T00:44:01.373Z,0.57
2022-08-07T00:46:30.959Z,0.70
2022-08-07T00:49:03.446Z,0.40
2022-08-07T00:51:58.216Z,0.63
2022-08-07T00:54:20.129Z,0.60
2022-08-07T00:56:49.737Z,0.73
2022-08-07T00:59:20.050Z,0.90
2022-08-07T01:02:02.213Z,0.53
2022-08-07T01:04:30.455Z,0.60
2022-08-07T01:07:03.576Z,0.47
2022-08-07T01:10:04.157Z,0.77
2022-08-07T01:12:30.056Z,0.60
2022-08-07T01:15:01.181Z,0.50
2022-08-07T01:17:33.290Z,0.67
2022-08-07T01:20:16.990Z,0.57
2022-08-07T01:22:54.159Z,0.60
2022-08-07T01:25:40.245Z,0.40
2022-08-07T01:28:22.821Z,0.60
2022-08-07T01:30:53.410Z,0.50
2022-08-07T01:33:20.633Z,0.60
2022-08-07T01:35:53.273Z,0.50
2022-08-07T01:38:24.926Z,0.47
2022-08-07T01:40:55.285Z,0.47
2022-08-07T01:43:23.179Z,0.57
2022-08-07T01:46:03.106Z,0.50
2022-08-07T01:48:32.281Z,0.50
2022-08-07T01:52:01.052Z,0.67
2022-08-07T01:54:09.242Z,0.60
2022-08-07T01:56:53.346Z,0.60
2022-08-07T01:59:34.276Z,0.57
2022-08-07T02:02:10.581Z,0.60
2022-08-07T02:04:55.756Z,0.50
2022-08-07T02:07:24.387Z,0.50
2022-08-07T02:10:03.626Z,0.40
2022-08-07T02:12:36.233Z,0.63
2022-08-07T02:15:06.717Z,0.60
2022-08-07T02:17:34.402Z,0.53
2022-08-07T02:20:04.109Z,0.43
2022-08-07T02:22:41.228Z,0.83
2022-08-07T02:25:13.800Z,1.03
2022-08-07T02:27:51.952Z,0.60
2022-08-07T02:30:20.740Z,0.67
2022-08-07T02:33:00.152Z,0.60
2022-08-07T02:36:28.599Z,0.60
2022-08-07T02:38:17.772Z,0.73
2022-08-07T02:40:55.284Z,0.60
2022-08-07T02:43:22.860Z,0.80
2022-08-07T02:46:00.556Z,0.63
2022-08-07T02:48:30.491Z,0.80
2022-08-07T02:50:57.697Z,0.60
2022-08-07T02:53:38.686Z,0.90
2022-08-07T02:56:13.060Z,0.50
2022-08-07T02:58:48.255Z,0.70
2022-08-07T03:01:18.658Z,0.70
2022-08-07T03:04:07.048Z,0.80
2022-08-07T03:06:34.905Z,0.43
2022-08-07T03:09:02.747Z,0.57
2022-08-07T03:11:32.617Z,0.73
2022-08-07T03:14:02.141Z,0.60
2022-08-07T03:16:32.347Z,0.60
2022-08-07T03:19:00.079Z,0.50
2022-08-07T03:21:28.167Z,0.50
2022-08-07T03:24:20.054Z,0.67
2022-08-07T03:26:58.257Z,0.73
2022-08-07T03:29:31.269Z,0.77
2022-08-07T03:32:03.362Z,0.50
2022-08-07T03:34:31.444Z,0.73
2022-08-07T03:36:58.564Z,0.90
2022-08-07T03:39:59.464Z,0.80
2022-08-07T03:42:14.571Z,0.53
2022-08-07T03:44:41.350Z,0.80
2022-08-07T03:47:14.105Z,0.50
2022-08-07T03:49:47.956Z,0.70
2022-08-07T03:52:26.791Z,0.70
2022-08-07T03:55:06.166Z,0.63
2022-08-07T03:58:32.979Z,1.00
2022-08-07T04:00:29.286Z,0.70
2022-08-07T04:02:59.673Z,0.70
2022-08-07T04:05:39.688Z,0.80
2022-08-07T04:08:12.884Z,0.50
2022-08-07T04:10:53.956Z,0.90
2022-08-07T04:14:32.896Z,0.60
2022-08-07T04:16:31.435Z,0.60
2022-08-07T04:19:01.546Z,0.57
2022-08-07T04:21:33.491Z,0.97
2022-08-07T04:24:07.610Z,0.77
2022-08-07T04:26:35.132Z,0.60
2022-08-07T04:29:03.769Z,0.90
2022-08-07T04:32:02.542Z,0.50
2022-08-07T04:34:24.120Z,0.60
2022-08-07T04:36:54.856Z,0.57
2022-08-07T04:39:25.925Z,0.63
2022-08-07T04:41:54.409Z,0.70
2022-08-07T04:44:22.721Z,0.67
2022-08-07T04:47:56.676Z,0.60
2022-08-07T04:50:33.583Z,0.60
2022-08-07T04:53:07.422Z,0.70
2022-08-07T04:58:15.329Z,0.47
2022-08-07T05:02:00.000Z,0.57
2022-08-07T05:05:53.497Z,0.80
2022-08-07T05:08:59.147Z,0.80
2022-08-07T05:11:57.976Z,0.70
2022-08-07T05:14:53.475Z,0.70
2022-08-07T05:17:52.156Z,0.70
2022-08-07T05:20:12.156Z,0.63
2022-08-07T05:22:40.826Z,0.67
2022-08-07T05:25:11.864Z,0.70
2022-08-07T05:28:16.980Z,0.67
2022-08-07T05:30:44.346Z,0.50
2022-08-07T05:33:15.410Z,0.50
2022-08-07T05:35:51.921Z,0.80
2022-08-07T05:39:00.643Z,0.70
2022-08-07T05:41:14.155Z,0.63
2022-08-07T05:44:12.040Z,0.80
2022-08-07T05:46:38.565Z,0.70
2022-08-07T05:49:12.069Z,0.60
2022-08-07T05:51:42.184Z,0.87
2022-08-07T05:54:30.282Z,0.90
2022-08-07T05:56:56.918Z,0.53
2022-08-07T05:59:24.488Z,0.60
2022-08-07T06:01:52.388Z,0.77
2022-08-07T06:04:19.992Z,0.70
2022-08-07T06:06:48.044Z,0.50
2022-08-07T06:10:04.547Z,0.60
2022-08-07T06:12:12.435Z,0.63
2022-08-07T06:14:43.294Z,0.80
2022-08-07T06:17:19.522Z,0.60
2022-08-07T06:20:03.688Z,0.80
2022-08-07T06:22:38.360Z,0.60
2022-08-07T06:25:06.350Z,0.40
2022-08-07T06:27:44.215Z,0.50
2022-08-07T06:30:35.559Z,0.80
2022-08-07T06:33:04.969Z,0.80
2022-08-07T06:35:45.410Z,0.60
2022-08-07T06:38:19.228Z,0.60
2022-08-07T06:40:57.662Z,0.80
2022-08-07T06:43:25.547Z,0.77
2022-08-07T06:45:57.373Z,0.63
2022-08-07T06:48:31.216Z,0.57
2022-08-07T06:51:08.047Z,0.70
2022-08-07T06:55:28.553Z,0.47
2022-08-07T06:56:49.360Z,0.90
2022-08-07T07:00:13.579Z,0.70
2022-08-07T07:02:48.499Z,0.70
2022-08-07T07:05:06.978Z,1.10
2022-08-07T07:07:59.106Z,0.90
2022-08-07T07:10:57.164Z,0.80
2022-08-07T07:13:58.741Z,0.90
2022-08-07T07:16:31.153Z,0.83
2022-08-07T07:19:54.838Z,0.80
2022-08-07T07:22:04.634Z,0.80
2022-08-07T07:24:39.503Z,0.70
2022-08-07T07:27:11.281Z,1.03
2022-08-07T07:30:07.495Z,0.83
2022-08-07T07:32:30.337Z,0.50
2022-08-07T07:34:58.648Z,0.83
2022-08-07T07:37:49.542Z,0.60
2022-08-07T07:40:17.568Z,0.97
2022-08-07T07:42:50.913Z,0.97
2022-08-07T07:45:19.647Z,1.00
2022-08-07T07:47:53.280Z,0.73
2022-08-07T07:50:34.144Z,0.80
2022-08-07T07:53:20.756Z,0.97
2022-08-07T07:56:00.394Z,1.10
2022-08-07T07:58:40.263Z,1.10
2022-08-07T08:02:02.943Z,0.83
2022-08-07T08:04:06.518Z,0.90
2022-08-07T08:06:52.296Z,0.87
2022-08-07T08:09:29.167Z,0.97
2022-08-07T08:12:02.156Z,1.00
2022-08-07T08:14:37.093Z,1.30
2022-08-07T08:17:55.362Z,1.27
2022-08-07T08:20:23.231Z,1.30
2022-08-07T08:23:35.728Z,1.10
2022-08-07T08:29:18.234Z,1.00
2022-08-07T08:32:17.611Z,0.97
2022-08-07T08:34:36.812Z,1.30
2022-08-07T08:38:00.697Z,1.30
2022-08-07T08:40:52.273Z,1.37
2022-08-07T08:43:42.978Z,1.03
2022-08-07T08:46:39.048Z,1.30
2022-08-07T08:49:32.821Z,1.30
2022-08-07T08:52:14.437Z,1.37
2022-08-07T08:55:53.891Z,1.40
2022-08-07T08:58:32.199Z,1.80
2022-08-07T09:01:19.231Z,1.47
2022-08-07T09:04:17.286Z,1.57
2022-08-07T09:06:59.603Z,1.37
2022-08-07T09:09:56.646Z,1.40
2022-08-07T09:12:53.605Z,1.20
2022-08-07T09:16:23.409Z,1.20
2022-08-07T09:19:51.441Z,1.23
2022-08-07T09:24:27.987Z,1.30
2022-08-07T09:25:17.406Z,1.17
2022-08-07T09:30:01.165Z,1.13
2022-08-07T09:31:08.622Z,1.20
2022-08-07T09:33:56.647Z,1.30
2022-08-07T09:36:37.580Z,1.00
2022-08-07T09:42:52.201Z,0.90
2022-08-07T09:47:24.874Z,1.03
2022-08-07T09:49:09.523Z,1.17
2022-08-07T09:52:15.298Z,1.13
2022-08-07T09:55:17.401Z,1.20
2022-08-07T09:58:19.013Z,0.87
2022-08-07T10:01:08.282Z,1.07
2022-08-07T10:04:18.765Z,0.90
2022-08-07T10:07:52.946Z,0.90
2022-08-07T10:10:28.292Z,1.50
2022-08-07T10:14:00.533Z,1.20
2022-08-07T10:16:28.902Z,1.20
2022-08-07T10:19:38.459Z,1.00
2022-08-07T10:22:37.684Z,1.10
2022-08-07T10:25:32.819Z,1.00
2022-08-07T10:28:43.424Z,1.27
2022-08-07T10:31:40.426Z,1.00
2022-08-07T10:34:45.237Z,1.10
2022-08-07T10:38:00.009Z,1.03
2022-08-07T10:40:48.928Z,1.13
2022-08-07T10:43:34.435Z,1.00
2022-08-07T10:46:12.243Z,1.17
2022-08-07T10:48:48.954Z,1.00
2022-08-07T10:51:39.530Z,1.13
2022-08-07T10:54:27.905Z,0.90
2022-08-07T10:57:34.131Z,1.13
2022-08-07T11:00:39.484Z,1.10
2022-08-07T11:03:54.983Z,1.17
2022-08-07T11:06:56.389Z,0.93
2022-08-07T11:10:08.894Z,1.10
2022-08-07T11:12:14.669Z,0.93
2022-08-07T11:15:14.547Z,0.93
2022-08-07T11:18:03.594Z,0.90
2022-08-07T11:20:53.026Z,1.00
2022-08-07T11:27:13.648Z,0.90
2022-08-07T11:29:47.367Z,1.20
2022-08-07T11:32:25.992Z,0.90
2022-08-07T11:35:05.117Z,0.97
2022-08-07T11:37:57.908Z,0.70
2022-08-07T11:40:54.450Z,0.77
2022-08-07T11:43:41.389Z,0.70
2022-08-07T11:46:21.817Z,0.73
2022-08-07T11:50:25.259Z,0.80
2022-08-07T11:52:29.405Z,0.67
2022-08-07T11:55:18.974Z,0.83
2022-08-07T11:58:13.197Z,0.57
2022-08-07T12:01:02.688Z,0.70
2022-08-07T12:03:51.010Z,0.93
2022-08-07T12:06:39.087Z,0.83
2022-08-07T12:09:24.515Z,0.70
2022-08-07T12:12:10.382Z,0.80
2022-08-07T12:15:17.420Z,0.77
2022-08-07T12:18:30.648Z,0.93
2022-08-07T12:21:14.989Z,0.80
2022-08-07T12:24:37.359Z,0.70
2022-08-07T12:27:16.117Z,0.87
2022-08-07T12:29:57.662Z,0.67
2022-08-07T12:32:49.139Z,0.80
2022-08-07T12:35:19.213Z,0.63
2022-08-07T12:38:10.857Z,0.60
2022-08-07T12:40:50.167Z,0.77
2022-08-07T12:44:04.107Z,0.73
2022-08-07T12:46:31.989Z,0.60
2022-08-07T12:49:39.533Z,0.60
2022-08-07T12:52:18.166Z,0.70
2022-08-07T12:55:05.831Z,0.50
2022-08-07T12:58:00.527Z,0.60
2022-08-07T13:01:00.426Z,0.70
2022-08-07T13:04:09.792Z,0.60
2022-08-07T13:08:11.340Z,0.50
2022-08-07T13:10:39.452Z,0.57
2022-08-07T13:13:47.425Z,0.40
2022-08-07T13:16:36.532Z,0.60
2022-08-07T13:19:46.095Z,0.60
2022-08-07T13:22:19.834Z,0.50
2022-08-07T13:25:00.253Z,0.67
2022-08-07T13:28:11.724Z,0.70
2022-08-07T13:30:44.153Z,1.00
2022-08-07T13:34:32.179Z,0.57
2022-08-07T13:37:10.943Z,0.70
2022-08-07T13:40:34.846Z,0.77
2022-08-07T13:43:11.727Z,0.70
2022-08-07T13:46:16.439Z,0.63
2022-08-07T13:48:34.024Z,0.67
2022-08-07T13:51:27.122Z,0.50
2022-08-07T13:54:04.913Z,0.90
2022-08-07T13:56:35.516Z,0.80
2022-08-07T13:59:33.381Z,0.60
2022-08-07T14:02:10.416Z,0.50
2022-08-07T14:04:54.741Z,0.60
2022-08-07T14:07:23.777Z,0.70
2022-08-07T14:10:02.460Z,0.57
2022-08-07T14:13:03.943Z,0.60
2022-08-07T14:15:42.862Z,0.77
2022-08-07T14:18:30.227Z,0.90
2022-08-07T14:21:08.046Z,0.60
2022-08-07T14:24:00.200Z,0.57
2022-08-07T14:26:51.014Z,0.70
2022-08-07T14:30:06.524Z,0.43
2022-08-07T14:32:15.883Z,0.73
2022-08-07T14:34:47.495Z,1.10
2022-08-07T14:37:18.752Z,0.80
2022-08-07T14:40:17.846Z,0.60
2022-08-07T14:43:58.261Z,0.67
2022-08-07T14:45:56.953Z,0.57
2022-08-07T14:48:31.559Z,0.60
2022-08-07T14:51:07.390Z,0.80
2022-08-07T14:54:05.880Z,0.70
2022-08-07T14:56:33.221Z,0.80
2022-08-07T14:59:13.735Z,0.60
2022-08-07T15:01:59.056Z,0.70
2022-08-07T15:04:28.848Z,0.90
2022-08-07T15:07:01.454Z,0.70
2022-08-07T15:09:59.592Z,0.60
2022-08-07T15:12:32.603Z,1.10
2022-08-07T15:15:21.117Z,0.70
2022-08-07T15:18:02.508Z,0.77
2022-08-07T15:20:54.662Z,0.90
2022-08-07T15:25:12.827Z,0.70
2022-08-07T15:30:21.589Z,0.67
2022-08-07T15:33:03.812Z,0.80
2022-08-07T15:36:01.490Z,0.70
2022-08-07T15:38:33.028Z,0.60
2022-08-07T15:44:08.640Z,0.60
2022-08-07T15:46:51.769Z,0.30
2022-08-07T15:50:04.282Z,0.77
2022-08-07T15:52:14.010Z,0.60
2022-08-07T15:54:44.060Z,0.47
2022-08-07T15:57:27.800Z,0.70
2022-08-07T16:00:04.311Z,0.50
2022-08-07T16:02:46.606Z,0.60
2022-08-07T16:05:31.224Z,0.60
2022-08-07T16:08:31.005Z,0.50
2022-08-07T16:11:25.387Z,0.50
2022-08-07T16:14:06.449Z,0.57
2022-08-07T16:17:15.403Z,0.50
2022-08-07T16:20:03.860Z,0.73
2022-08-07T16:22:55.173Z,0.60
2022-08-07T16:25:54.650Z,0.67
2022-08-07T16:30:06.256Z,0.47
2022-08-07T16:31:50.157Z,0.70
2022-08-07T16:34:48.139Z,0.70
2022-08-07T16:38:04.365Z,0.50
2022-08-07T16:41:26.370Z,0.40
2022-08-07T16:45:14.356Z,0.60
2022-08-07T16:47:56.562Z,0.70
2022-08-07T16:51:21.694Z,0.70
2022-08-07T16:54:06.472Z,0.63
2022-08-07T16:56:55.275Z,0.97
2022-08-07T16:59:48.727Z,0.57
2022-08-07T17:02:51.130Z,0.53
2022-08-07T17:06:19.849Z,0.93
2022-08-07T17:12:35.643Z,3.03
2022-08-07T17:15:44.448Z,12.27
2022-08-07T17:18:25.977Z,14.20
2022-08-07T17:20:54.737Z,14.70
2022-08-07T17:24:02.921Z,11.73
2022-08-07T17:27:06.507Z,9.07
2022-08-07T17:30:14.764Z,6.83
2022-08-07T17:32:57.518Z,3.83
2022-08-07T17:35:54.625Z,4.83
2022-08-07T17:39:10.566Z,4.67
2022-08-07T17:42:36.127Z,4.23
2022-08-07T17:45:46.797Z,3.50
2022-08-07T17:48:31.107Z,2.33
2022-08-07T17:51:49.600Z,2.10
2022-08-07T17:54:39.859Z,2.30
2022-08-07T17:57:59.300Z,2.40
2022-08-07T18:00:32.940Z,2.00
2022-08-07T18:03:09.377Z,1.50
2022-08-07T18:06:03.387Z,1.57
2022-08-07T18:09:00.674Z,1.50
2022-08-07T18:12:07.564Z,1.20
2022-08-07T18:14:45.996Z,1.20
2022-08-07T18:18:46.011Z,1.30
2022-08-07T18:21:02.431Z,1.07
2022-08-07T18:23:42.400Z,1.00
2022-08-07T18:26:03.604Z,1.30
2022-08-07T18:28:57.660Z,0.80
2022-08-07T18:31:50.040Z,1.10
2022-08-07T18:34:40.793Z,1.10
2022-08-07T18:38:58.896Z,0.97
2022-08-07T18:40:42.434Z,0.80
2022-08-07T18:43:42.719Z,0.70
2022-08-07T18:47:00.248Z,0.50
2022-08-07T18:50:29.916Z,0.90
2022-08-07T18:53:18.071Z,0.67
2022-08-07T18:56:21.131Z,0.57
2022-08-07T18:59:47.473Z,0.53
2022-08-07T19:02:36.367Z,0.63
2022-08-07T19:06:02.634Z,0.53
2022-08-07T19:08:18.036Z,0.67
2022-08-07T19:10:52.621Z,0.70
2022-08-07T19:13:40.981Z,0.73
2022-08-07T19:16:43.607Z,0.80
2022-08-07T19:19:14.448Z,0.50
2022-08-07T19:22:04.794Z,0.77
2022-08-07T19:24:43.232Z,0.90
2022-08-07T19:28:29.161Z,0.50
2022-08-07T19:30:57.804Z,0.80
2022-08-07T19:32:59.110Z,0.90
2022-08-07T19:35:33.526Z,0.70
2022-08-07T19:38:16.671Z,0.70
2022-08-07T19:40:49.681Z,0.63
2022-08-07T19:43:44.074Z,0.70
2022-08-07T19:46:12.002Z,0.30
2022-08-07T19:48:53.938Z,0.60
2022-08-07T19:51:24.401Z,0.60
2022-08-07T19:54:44.373Z,0.53
2022-08-07T19:58:03.120Z,0.60
2022-08-07T19:59:47.965Z,0.60
2022-08-07T20:02:30.913Z,0.60
2022-08-07T20:05:00.415Z,0.77
2022-08-07T20:07:47.586Z,0.43
2022-08-07T20:10:54.558Z,0.40
2022-08-07T20:13:35.172Z,0.50
2022-08-07T20:16:05.171Z,0.80
2022-08-07T20:18:34.590Z,0.53
2022-08-07T20:21:03.701Z,0.63
2022-08-07T20:23:54.304Z,0.73
2022-08-07T20:26:38.682Z,0.43
2022-08-07T20:29:46.841Z,0.60
2022-08-07T20:32:03.051Z,0.60
2022-08-07T20:34:49.551Z,0.40
2022-08-07T20:37:58.453Z,0.50
2022-08-07T20:40:31.999Z,0.70
2022-08-07T20:43:02.389Z,0.63
2022-08-07T20:46:28.847Z,0.60
2022-08-07T20:48:29.522Z,0.50
2022-08-07T20:51:03.623Z,0.50
2022-08-07T20:54:03.638Z,0.60
2022-08-07T20:56:26.490Z,0.77
2022-08-07T20:58:59.383Z,0.50
2022-08-07T21:01:29.736Z,0.40
2022-08-07T21:04:23.579Z,0.60
2022-08-07T21:06:55.102Z,0.70
2022-08-07T21:09:51.614Z,0.60
2022-08-07T21:12:30.736Z,0.70
2022-08-07T21:15:00.887Z,0.80
2022-08-07T21:18:02.308Z,0.70
2022-08-07T21:20:30.193Z,0.80
2022-08-07T21:23:08.280Z,0.80
2022-08-07T21:26:03.277Z,0.70
2022-08-07T21:29:05.313Z,0.57
2022-08-07T21:32:47.090Z,0.80
2022-08-07T21:35:05.965Z,0.97
2022-08-07T21:37:58.195Z,0.77
2022-08-07T21:40:47.027Z,0.93
2022-08-07T21:44:05.558Z,1.03
2022-08-07T21:46:51.054Z,0.80
2022-08-07T21:50:02.518Z,0.70
2022-08-07T21:52:50.941Z,0.70
2022-08-07T21:55:28.229Z,0.70
2022-08-07T21:58:51.254Z,0.70
2022-08-07T22:02:10.210Z,0.60
2022-08-07T22:04:51.415Z,0.70
2022-08-07T22:07:58.685Z,0.73
2022-08-07T22:10:33.832Z,0.73
2022-08-07T22:13:09.729Z,0.60
2022-08-07T22:16:43.509Z,0.60
2022-08-07T22:19:08.223Z,0.87
2022-08-07T22:22:01.822Z,0.60
2022-08-07T22:24:41.771Z,0.90
2022-08-07T22:28:15.129Z,0.90
2022-08-07T22:31:45.286Z,0.90
2022-08-07T22:34:15.683Z,0.70
2022-08-07T22:37:05.063Z,0.60
2022-08-07T22:39:59.364Z,0.73
2022-08-07T22:42:29.483Z,0.77
2022-08-07T22:45:02.174Z,0.67
2022-08-07T22:48:04.278Z,0.90
2022-08-07T22:51:37.632Z,0.60
2022-08-07T22:54:49.067Z,0.60
2022-08-07T22:57:37.400Z,0.73
2022-08-07T23:00:16.265Z,0.73
2022-08-07T23:02:48.802Z,0.70
2022-08-07T23:06:08.567Z,0.87
2022-08-07T23:08:55.913Z,0.67
2022-08-07T23:11:48.344Z,0.70
2022-08-07T23:14:32.304Z,0.70
2022-08-07T23:17:31.465Z,0.63
2022-08-07T23:20:51.085Z,0.73
2022-08-07T23:24:11.593Z,0.80
2022-08-07T23:27:06.065Z,0.67
2022-08-07T23:30:37.355Z,0.60
2022-08-07T23:34:23.050Z,0.70
2022-08-07T23:36:17.418Z,0.67
2022-08-07T23:39:01.699Z,0.60
2022-08-07T23:41:47.625Z,0.60
2022-08-07T23:44:54.254Z,0.70
2022-08-07T23:47:27.799Z,0.80
2022-08-07T23:50:30.096Z,0.63
2022-08-07T23:53:51.436Z,0.57
2022-08-07T23:56:41.611Z,0.50
